createdAt,value
2019-05-25T00:02:22.263Z,13.50
2019-05-25T00:07:23.628Z,13.08
2019-05-25T00:12:31.617Z,13.98
2019-05-25T00:17:32.872Z,12.80
2019-05-25T00:22:37.623Z,13.68
2019-05-25T00:27:39.786Z,13.80
2019-05-25T00:32:41.867Z,18.05
2019-05-25T00:37:44.283Z,14.90
2019-05-25T00:42:47.244Z,14.47
2019-05-25T00:47:51.329Z,17.60
2019-05-25T00:52:55.434Z,12.73
2019-05-25T00:57:58.142Z,27.25
2019-05-25T01:02:59.890Z,16.30
2019-05-25T01:08:01.653Z,19.05
2019-05-25T01:13:04.244Z,15.23
2019-05-25T01:18:08.395Z,21.37
2019-05-25T01:23:12.549Z,17.80
2019-05-25T01:28:15.790Z,18.62
2019-05-25T01:33:17.926Z,20.77
2019-05-25T01:38:19.782Z,20.77
2019-05-25T01:43:23.129Z,20.05
2019-05-25T01:48:24.869Z,20.97
2019-05-25T01:53:26.520Z,27.52
2019-05-25T01:58:29.651Z,23.38
2019-05-25T02:03:31.124Z,21.75
2019-05-25T02:08:44.623Z,22.80
2019-05-25T02:13:46.875Z,26.20
2019-05-25T02:18:53.192Z,24.87
2019-05-25T02:23:58.389Z,24.87
2019-05-25T02:29:02.515Z,23.40
2019-05-25T02:34:03.955Z,22.15
2019-05-25T02:39:07.772Z,23.87
2019-05-25T02:44:09.590Z,21.77
2019-05-25T02:49:12.122Z,23.90
2019-05-25T02:54:13.432Z,22.30
2019-05-25T02:59:14.733Z,25.25
2019-05-25T03:04:16.636Z,32.08
2019-05-25T03:09:23.686Z,22.42
2019-05-25T03:14:27.239Z,26.57
2019-05-25T03:19:28.523Z,19.57
2019-05-25T03:24:30.043Z,27.15
2019-05-25T03:29:31.314Z,34.13
2019-05-25T03:34:32.619Z,36.88
2019-05-25T03:39:33.850Z,37.78
2019-05-25T03:44:35.210Z,30.88
2019-05-25T03:49:38.966Z,27.50
2019-05-25T03:54:41.624Z,27.42
2019-05-25T03:59:42.974Z,22.93
2019-05-25T04:04:47.294Z,25.85
2019-05-25T04:09:48.547Z,29.37
2019-05-25T04:14:51.244Z,23.95
2019-05-25T04:19:54.956Z,25.62
2019-05-25T04:24:56.268Z,24.85
2019-05-25T04:29:57.522Z,26.02
2019-05-25T04:34:59.046Z,20.27
2019-05-25T04:40:00.755Z,23.77
2019-05-25T04:45:05.657Z,26.77
2019-05-25T04:50:09.564Z,24.30
2019-05-25T04:55:11.839Z,22.17
2019-05-25T05:00:16.240Z,23.22
2019-05-25T05:05:19.445Z,20.68
2019-05-25T05:10:21.948Z,20.25
2019-05-25T05:15:23.222Z,21.68
2019-05-25T05:20:24.614Z,24.02
2019-05-25T05:25:27.127Z,20.75
2019-05-25T05:30:33.110Z,21.07
2019-05-25T05:35:38.905Z,20.72
2019-05-25T05:40:40.648Z,19.60
2019-05-25T05:45:46.043Z,17.65
2019-05-25T05:50:52.143Z,23.02
2019-05-25T05:55:54.030Z,23.05
2019-05-25T06:00:57.695Z,24.12
2019-05-25T06:05:59.868Z,18.73
2019-05-25T06:11:01.540Z,20.80
2019-05-25T06:16:02.979Z,19.20
2019-05-25T06:21:05.111Z,17.67
2019-05-25T06:26:06.533Z,21.42
2019-05-25T06:31:07.937Z,20.75
2019-05-25T06:36:09.586Z,19.82
2019-05-25T06:41:11.301Z,15.35
2019-05-25T06:46:15.457Z,16.02
2019-05-25T06:51:18.490Z,17.23
2019-05-25T06:56:19.897Z,16.48
2019-05-25T07:01:24.117Z,16.73
2019-05-25T07:06:25.658Z,14.43
2019-05-25T07:11:27.051Z,15.30
2019-05-25T07:16:29.963Z,19.52
2019-05-25T07:21:31.469Z,21.07
2019-05-25T07:26:32.758Z,15.38
2019-05-25T07:31:36.462Z,20.60
2019-05-25T07:36:37.753Z,20.77
2019-05-25T07:41:42.881Z,14.13
2019-05-25T07:46:46.550Z,15.98
2019-05-25T07:51:56.906Z,18.90
2019-05-25T07:56:58.896Z,17.27
2019-05-25T08:02:04.188Z,17.20
2019-05-25T08:07:09.704Z,16.50
2019-05-25T08:12:14.326Z,14.60
2019-05-25T08:17:18.968Z,17.77
2019-05-25T08:22:24.353Z,13.53
2019-05-25T08:27:29.039Z,12.82
2019-05-25T08:32:31.327Z,15.38
2019-05-25T08:37:35.912Z,15.28
2019-05-25T08:42:37.527Z,14.23
2019-05-25T08:47:42.273Z,19.87
2019-05-25T08:52:49.878Z,19.27
2019-05-25T08:57:56.951Z,16.42
2019-05-25T09:03:00.374Z,13.98
2019-05-25T09:08:06.123Z,14.55
2019-05-25T09:13:08.218Z,15.10
2019-05-25T09:18:12.058Z,15.45
2019-05-25T09:23:13.996Z,13.45
2019-05-25T09:28:24.421Z,13.58
2019-05-25T09:33:26.513Z,12.43
2019-05-25T09:38:34.378Z,12.88
2019-05-25T09:43:42.033Z,12.23
2019-05-25T09:48:45.718Z,12.03
2019-05-25T09:53:47.855Z,14.30
2019-05-25T09:58:50.705Z,14.50
2019-05-25T10:03:56.722Z,11.05
2019-05-25T10:08:58.717Z,14.03
2019-05-25T10:14:00.537Z,13.35
2019-05-25T10:19:03.152Z,9.65
2019-05-25T10:24:09.215Z,8.80
2019-05-25T10:29:13.952Z,9.98
2019-05-25T10:34:15.575Z,10.10
2019-05-25T10:39:19.917Z,10.13
2019-05-25T10:44:21.531Z,10.95
2019-05-25T10:49:22.886Z,9.58
2019-05-25T10:54:24.237Z,9.95
2019-05-25T10:59:26.782Z,12.15
2019-05-25T11:04:31.387Z,12.05
2019-05-25T11:09:33.494Z,11.90
2019-05-25T11:14:36.220Z,12.00
2019-05-25T11:19:37.966Z,14.93
2019-05-25T11:24:39.379Z,12.75
2019-05-25T11:29:40.952Z,12.20
2019-05-25T11:34:42.345Z,11.70
2019-05-25T11:39:43.670Z,9.60
2019-05-25T11:44:45.311Z,10.53
2019-05-25T11:49:46.799Z,12.35
2019-05-25T11:54:48.095Z,10.85
2019-05-25T11:59:51.596Z,13.15
2019-05-25T12:04:52.873Z,10.05
2019-05-25T12:09:57.139Z,7.83
2019-05-25T12:15:06.736Z,9.70
2019-05-25T12:20:10.219Z,9.68
2019-05-25T12:25:13.463Z,10.58
2019-05-25T12:30:20.682Z,8.50
2019-05-25T12:35:23.932Z,10.10
2019-05-25T12:40:29.003Z,9.88
2019-05-25T12:45:30.304Z,7.08
2019-05-25T12:50:32.950Z,9.63
2019-05-25T12:55:34.517Z,12.88
2019-05-25T13:00:36.671Z,15.95
2019-05-25T13:05:38.046Z,10.68
2019-05-25T13:10:40.890Z,10.95
2019-05-25T13:15:42.204Z,11.28
2019-05-25T13:20:46.199Z,9.98
2019-05-25T13:25:49.424Z,14.90
2019-05-25T13:30:50.894Z,12.23
2019-05-25T13:35:52.359Z,11.55
2019-05-25T13:40:53.840Z,11.35
2019-05-25T13:45:55.243Z,10.93
2019-05-25T13:50:56.534Z,10.08
2019-05-25T13:55:57.825Z,13.60
2019-05-25T14:00:59.485Z,14.00
2019-05-25T14:06:00.801Z,16.25
2019-05-25T14:11:02.268Z,21.25
2019-05-25T14:16:07.459Z,13.68
2019-05-25T14:21:09.010Z,11.22
2019-05-25T14:26:13.350Z,6.87
2019-05-25T14:31:17.223Z,7.28
2019-05-25T14:36:20.090Z,4.80
2019-05-25T14:41:22.659Z,3.70
2019-05-25T14:46:28.174Z,8.05
2019-05-25T14:51:31.011Z,6.15
2019-05-25T14:56:35.636Z,4.10
2019-05-25T15:01:39.349Z,9.63
2019-05-25T15:06:40.739Z,2.30
2019-05-25T15:11:45.134Z,7.75
2019-05-25T15:16:46.664Z,7.53
2019-05-25T15:21:48.477Z,6.40
2019-05-25T15:26:49.896Z,5.53
2019-05-25T15:31:51.277Z,6.95
2019-05-25T15:36:54.564Z,5.03
2019-05-25T15:41:55.854Z,5.30
2019-05-25T15:46:57.151Z,5.62
2019-05-25T15:52:00.283Z,5.65
2019-05-25T15:57:01.586Z,8.13
2019-05-25T16:02:04.747Z,5.97
2019-05-25T16:07:06.227Z,7.45
2019-05-25T16:12:07.664Z,8.90
2019-05-25T16:17:13.125Z,6.30
2019-05-25T16:22:14.457Z,7.35
2019-05-25T16:27:16.175Z,9.98
2019-05-25T16:32:25.314Z,11.70
2019-05-25T16:37:28.998Z,12.78
2019-05-25T16:42:32.416Z,14.43
2019-05-25T16:47:34.633Z,10.90
2019-05-25T16:52:37.879Z,11.43
2019-05-25T16:57:39.726Z,14.05
2019-05-25T17:02:41.445Z,12.55
2019-05-25T17:07:43.010Z,14.53
2019-05-25T17:12:45.645Z,13.95
2019-05-25T17:17:47.778Z,15.15
2019-05-25T17:22:49.189Z,17.17
2019-05-25T17:27:50.624Z,14.28
2019-05-25T17:32:52.336Z,12.82
2019-05-25T17:37:53.722Z,15.72
2019-05-25T17:42:55.055Z,13.53
2019-05-25T17:47:56.995Z,13.48
2019-05-25T17:53:02.004Z,15.28
2019-05-25T17:58:08.558Z,16.45
2019-05-25T18:03:10.383Z,15.68
2019-05-25T18:08:12.037Z,23.07
2019-05-25T18:13:13.806Z,18.23
2019-05-25T18:18:17.671Z,17.15
2019-05-25T18:23:22.275Z,20.12
2019-05-25T18:28:23.619Z,16.15
2019-05-25T18:33:26.938Z,20.55
2019-05-25T18:38:31.811Z,23.18
2019-05-25T18:43:33.426Z,21.30
2019-05-25T18:48:53.445Z,24.00
2019-05-25T18:54:02.893Z,23.25
2019-05-25T18:59:04.312Z,25.20
2019-05-25T19:04:08.211Z,22.93
2019-05-25T19:09:09.830Z,20.75
2019-05-25T19:14:11.532Z,20.05
2019-05-25T19:19:16.821Z,22.77
2019-05-25T19:24:18.543Z,24.87
2019-05-25T19:29:19.848Z,22.27
2019-05-25T19:34:21.678Z,20.65
2019-05-25T19:39:23.332Z,22.90
2019-05-25T19:44:28.677Z,20.95
2019-05-25T19:49:32.474Z,26.65
2019-05-25T19:54:38.900Z,27.45
2019-05-25T19:59:42.546Z,25.05
2019-05-25T20:04:43.965Z,22.40
2019-05-25T20:09:45.314Z,23.10
2019-05-25T20:14:46.845Z,26.93
2019-05-25T20:19:48.227Z,25.88
2019-05-25T20:24:49.549Z,27.35
2019-05-25T20:29:50.877Z,23.35
2019-05-25T20:34:52.898Z,28.25
2019-05-25T20:39:54.219Z,29.67
2019-05-25T20:44:55.520Z,32.75
2019-05-25T20:49:57.135Z,34.55
2019-05-25T20:54:58.473Z,35.45
2019-05-25T21:00:02.544Z,34.55
2019-05-25T21:05:05.970Z,36.60
2019-05-25T21:10:09.538Z,35.83
2019-05-25T21:15:12.381Z,38.95
2019-05-25T21:20:13.922Z,36.98
2019-05-25T21:25:16.387Z,37.53
2019-05-25T21:30:18.669Z,37.33
2019-05-25T21:35:21.890Z,40.28
2019-05-25T21:40:25.737Z,44.27
2019-05-25T21:45:27.126Z,44.23
2019-05-25T21:50:30.489Z,39.92
2019-05-25T21:55:31.928Z,37.53
2019-05-25T22:00:35.191Z,35.55
2019-05-25T22:05:38.251Z,36.55
2019-05-25T22:10:39.562Z,29.23
2019-05-25T22:15:41.204Z,33.65
2019-05-25T22:20:43.618Z,35.30
2019-05-25T22:25:45.163Z,34.80
2019-05-25T22:30:47.552Z,32.58
2019-05-25T22:35:49.776Z,30.02
2019-05-25T22:40:51.036Z,38.00
2019-05-25T22:45:52.300Z,34.75
2019-05-25T22:50:54.048Z,38.67
2019-05-25T22:55:55.589Z,37.17
2019-05-25T23:00:56.870Z,37.05
2019-05-25T23:05:58.229Z,39.13
2019-05-25T23:10:59.557Z,37.28
2019-05-25T23:16:01.420Z,40.03
2019-05-25T23:21:06.170Z,39.85
2019-05-25T23:26:07.468Z,44.88
2019-05-25T23:31:08.755Z,44.93
2019-05-25T23:36:10.076Z,44.23
2019-05-25T23:41:13.261Z,42.80
2019-05-25T23:46:16.073Z,44.58
2019-05-25T23:51:38.842Z,44.60
2019-05-25T23:56:42.226Z,47.83
